Rocky Mount Wilson Regional Airport
KRWI : now visible

Aeroporto :











RITROVATECI SU...

 
LOGIN :

Iscrizione | Disclaimer

   EN    FR    IT 

 









Sommario :    VFR   VFR Marginale   IFR   IFR Intensivo   IFR Molto Intensivo
Visibilità : 
Base nubi : 
>= 8 km
>= 3000ft
5 / 8 km
1000 / 3000 ft
1500m / 5 km
500 / 1000 ft
800 / 1500m
200 / 500 ft
< 800m
< 200 ft
Simboli :   Temporali  Nebbia  Neve Forte  Precipitazioni Forti  Vento > 20 kt







- Altitudine del aeroporto : 159 ft
- Codice IATA : RWI


KRWI - Rocky Mount Wilson Regional

ULTIMO METAR :
  • 241853Z AUTO 10SM CLR 29/14 A2988 RMK AO2 SLP115 T02940144 $

METARs OBSOLETI :
  • 241753Z AUTO 27008KT 10SM CLR 29/15 A2990 RMK AO2 SLP124 T02890150 10289 20178 58010 $
  • 241653Z AUTO 24006KT 10SM CLR 27/14 A2992 RMK AO2 SLP128 T02720139

TAF KRWI
Valido dal 24 a 18 ore il 25 a 18 ore UTC


241720Z 2418/2518 24006KT P6SM SKC
FM250000 VRB02KT P6SM FEW250
FM251500 25006KT P6SM BKN150
FIR KZDC / America del Nord



MetMap, La meteo Aeronautica in un colpo d'occhio ! - Copyright ORBIFLY Dicembre 2007 - Disclaimer

ORBIFLY MET'MAP TEAM :

Programmazione e sviluppo : Alexandra Zaïnal
Concezione e sviluppo : Baudouin d'Aumeries
Co-Programmazione e sviluppo : Marc-Olivier Méhu
Supporto tecnico e logistico : Manuel Goepfert
Aiuto per la traduzione : Arnaldo La Scala

Contatto : metmap@orbifly.com




FONTI E CREDITI :

   NOAA       Earth
Advisory